sensor_id;sensor_type;location;lat;lon;timestamp;temperature;humidity
35593;DHT22;64447;52.140;5.602;2022-12-05T00:01:32;3.80;93.30
35593;DHT22;64447;52.140;5.602;2022-12-05T00:04:02;3.80;93.20
35593;DHT22;64447;52.140;5.602;2022-12-05T00:06:29;3.90;93.30
35593;DHT22;64447;52.140;5.602;2022-12-05T00:08:56;3.90;93.10
35593;DHT22;64447;52.140;5.602;2022-12-05T00:11:25;4.30;93.10
35593;DHT22;64447;52.140;5.602;2022-12-05T00:13:52;3.90;93.20
35593;DHT22;64447;52.140;5.602;2022-12-05T00:16:20;3.90;93.30
35593;DHT22;64447;52.140;5.602;2022-12-05T00:18:46;3.90;93.10
35593;DHT22;64447;52.140;5.602;2022-12-05T00:21:18;4.00;93.10
35593;DHT22;64447;52.140;5.602;2022-12-05T00:23:45;3.90;93.20
35593;DHT22;64447;52.140;5.602;2022-12-05T00:26:11;3.90;93.30
35593;DHT22;64447;52.140;5.602;2022-12-05T00:28:38;3.90;93.40
35593;DHT22;64447;52.140;5.602;2022-12-05T00:31:12;4.00;93.40
35593;DHT22;64447;52.140;5.602;2022-12-05T00:33:38;3.90;93.50
35593;DHT22;64447;52.140;5.602;2022-12-05T00:36:16;3.90;93.50
35593;DHT22;64447;52.140;5.602;2022-12-05T00:38:42;4.00;93.60
35593;DHT22;64447;52.140;5.602;2022-12-05T00:41:15;4.00;93.50
35593;DHT22;64447;52.140;5.602;2022-12-05T00:43:41;4.10;93.50
35593;DHT22;64447;52.140;5.602;2022-12-05T00:46:09;4.20;93.30
35593;DHT22;64447;52.140;5.602;2022-12-05T00:48:36;4.10;93.30
35593;DHT22;64447;52.140;5.602;2022-12-05T00:51:04;4.10;93.40
35593;DHT22;64447;52.140;5.602;2022-12-05T00:53:30;4.20;93.50
35593;DHT22;64447;52.140;5.602;2022-12-05T00:55:56;4.10;93.70
35593;DHT22;64447;52.140;5.602;2022-12-05T00:58:21;4.10;94.00
35593;DHT22;64447;52.140;5.602;2022-12-05T01:00:47;4.10;93.70
35593;DHT22;64447;52.140;5.602;2022-12-05T01:03:12;4.20;93.60
35593;DHT22;64447;52.140;5.602;2022-12-05T01:05:38;4.30;93.80
35593;DHT22;64447;52.140;5.602;2022-12-05T01:08:04;4.10;93.90
35593;DHT22;64447;52.140;5.602;2022-12-05T01:10:29;4.70;94.10
35593;DHT22;64447;52.140;5.602;2022-12-05T01:12:55;4.10;94.20
35593;DHT22;64447;52.140;5.602;2022-12-05T01:15:20;4.20;94.30
35593;DHT22;64447;52.140;5.602;2022-12-05T01:17:46;4.20;94.20
35593;DHT22;64447;52.140;5.602;2022-12-05T01:20:12;4.30;94.10
35593;DHT22;64447;52.140;5.602;2022-12-05T01:22:38;4.20;94.40
35593;DHT22;64447;52.140;5.602;2022-12-05T01:25:03;4.40;94.00
35593;DHT22;64447;52.140;5.602;2022-12-05T01:27:29;4.50;93.90
35593;DHT22;64447;52.140;5.602;2022-12-05T01:29:56;4.50;94.00
35593;DHT22;64447;52.140;5.602;2022-12-05T01:32:22;4.60;93.90
35593;DHT22;64447;52.140;5.602;2022-12-05T01:34:47;4.50;93.70
35593;DHT22;64447;52.140;5.602;2022-12-05T01:37:13;4.60;93.90
35593;DHT22;64447;52.140;5.602;2022-12-05T01:39:39;4.50;93.70
35593;DHT22;64447;52.140;5.602;2022-12-05T01:42:05;4.40;94.20
35593;DHT22;64447;52.140;5.602;2022-12-05T01:46:57;4.20;94.70
35593;DHT22;64447;52.140;5.602;2022-12-05T01:49:37;4.20;94.80
35593;DHT22;64447;52.140;5.602;2022-12-05T01:52:08;4.20;95.00
35593;DHT22;64447;52.140;5.602;2022-12-05T01:54:36;4.20;95.00
35593;DHT22;64447;52.140;5.602;2022-12-05T01:57:04;4.30;95.20
35593;DHT22;64447;52.140;5.602;2022-12-05T01:59:34;4.30;95.10
35593;DHT22;64447;52.140;5.602;2022-12-05T02:02:00;4.30;94.90
35593;DHT22;64447;52.140;5.602;2022-12-05T02:04:26;4.30;95.00
35593;DHT22;64447;52.140;5.602;2022-12-05T02:06:53;4.40;94.90
35593;DHT22;64447;52.140;5.602;2022-12-05T02:09:20;4.60;94.50
35593;DHT22;64447;52.140;5.602;2022-12-05T02:11:53;4.50;94.80
35593;DHT22;64447;52.140;5.602;2022-12-05T02:29:08;4.50;95.00
35593;DHT22;64447;52.140;5.602;2022-12-05T02:37:21;4.40;94.90
35593;DHT22;64447;52.140;5.602;2022-12-05T02:40:11;4.30;95.10
35593;DHT22;64447;52.140;5.602;2022-12-05T02:42:44;4.30;95.30
35593;DHT22;64447;52.140;5.602;2022-12-05T02:45:14;4.30;95.50
35593;DHT22;64447;52.140;5.602;2022-12-05T02:47:44;4.40;95.50
35593;DHT22;64447;52.140;5.602;2022-12-05T02:50:14;4.70;95.40
35593;DHT22;64447;52.140;5.602;2022-12-05T02:52:42;4.40;95.20
35593;DHT22;64447;52.140;5.602;2022-12-05T02:55:09;4.30;95.40
35593;DHT22;64447;52.140;5.602;2022-12-05T02:57:36;4.60;95.50
35593;DHT22;64447;52.140;5.602;2022-12-05T03:00:03;4.40;95.20
35593;DHT22;64447;52.140;5.602;2022-12-05T03:02:31;4.40;95.00
35593;DHT22;64447;52.140;5.602;2022-12-05T03:05:09;4.40;95.10
35593;DHT22;64447;52.140;5.602;2022-12-05T03:07:39;4.90;95.50
35593;DHT22;64447;52.140;5.602;2022-12-05T03:10:09;4.50;95.00
35593;DHT22;64447;52.140;5.602;2022-12-05T03:12:40;4.50;95.40
35593;DHT22;64447;52.140;5.602;2022-12-05T03:15:13;4.50;94.80
35593;DHT22;64447;52.140;5.602;2022-12-05T03:17:45;4.40;95.00
35593;DHT22;64447;52.140;5.602;2022-12-05T03:20:27;4.60;95.40
35593;DHT22;64447;52.140;5.602;2022-12-05T03:22:58;4.40;95.00
35593;DHT22;64447;52.140;5.602;2022-12-05T03:25:32;4.40;94.90
35593;DHT22;64447;52.140;5.602;2022-12-05T03:28:05;4.50;94.90
35593;DHT22;64447;52.140;5.602;2022-12-05T03:30:35;4.50;95.00
35593;DHT22;64447;52.140;5.602;2022-12-05T03:33:10;4.50;95.10
35593;DHT22;64447;52.140;5.602;2022-12-05T03:35:44;4.90;95.20
35593;DHT22;64447;52.140;5.602;2022-12-05T03:38:15;4.60;95.20
35593;DHT22;64447;52.140;5.602;2022-12-05T03:40:53;4.70;94.50
35593;DHT22;64447;52.140;5.602;2022-12-05T03:43:38;4.70;94.60
35593;DHT22;64447;52.140;5.602;2022-12-05T03:46:15;4.60;95.00
35593;DHT22;64447;52.140;5.602;2022-12-05T03:49:01;4.50;95.10
35593;DHT22;64447;52.140;5.602;2022-12-05T03:51:34;4.70;94.90
35593;DHT22;64447;52.140;5.602;2022-12-05T03:54:07;4.60;94.70
35593;DHT22;64447;52.140;5.602;2022-12-05T03:56:40;4.60;94.80
35593;DHT22;64447;52.140;5.602;2022-12-05T03:59:41;4.90;94.70
35593;DHT22;64447;52.140;5.602;2022-12-05T04:02:14;4.90;94.20
35593;DHT22;64447;52.140;5.602;2022-12-05T04:04:58;6.00;94.70
35593;DHT22;64447;52.140;5.602;2022-12-05T04:07:28;4.90;94.50
35593;DHT22;64447;52.140;5.602;2022-12-05T04:09:59;4.90;94.70
35593;DHT22;64447;52.140;5.602;2022-12-05T04:12:29;5.00;94.50
35593;DHT22;64447;52.140;5.602;2022-12-05T04:15:09;5.10;94.00
35593;DHT22;64447;52.140;5.602;2022-12-05T04:17:50;5.20;94.00
35593;DHT22;64447;52.140;5.602;2022-12-05T04:20:20;5.60;94.30
35593;DHT22;64447;52.140;5.602;2022-12-05T04:23:07;5.10;94.20
35593;DHT22;64447;52.140;5.602;2022-12-05T04:36:15;5.30;94.60
35593;DHT22;64447;52.140;5.602;2022-12-05T04:39:21;5.40;94.10
35593;DHT22;64447;52.140;5.602;2022-12-05T04:41:56;5.20;94.00
35593;DHT22;64447;52.140;5.602;2022-12-05T04:44:27;5.20;94.00
35593;DHT22;64447;52.140;5.602;2022-12-05T04:46:56;5.10;94.50
35593;DHT22;64447;52.140;5.602;2022-12-05T04:49:25;5.20;94.70
35593;DHT22;64447;52.140;5.602;2022-12-05T04:51:54;5.40;94.20
35593;DHT22;64447;52.140;5.602;2022-12-05T04:54:36;5.50;94.10
35593;DHT22;64447;52.140;5.602;2022-12-05T04:59:40;5.70;93.30
35593;DHT22;64447;52.140;5.602;2022-12-05T05:02:07;5.40;93.50
35593;DHT22;64447;52.140;5.602;2022-12-05T05:04:46;5.40;94.10
35593;DHT22;64447;52.140;5.602;2022-12-05T05:07:13;5.40;94.20
35593;DHT22;64447;52.140;5.602;2022-12-05T05:09:39;5.40;93.90
35593;DHT22;64447;52.140;5.602;2022-12-05T05:12:05;5.60;94.30
35593;DHT22;64447;52.140;5.602;2022-12-05T05:14:31;5.50;94.20
35593;DHT22;64447;52.140;5.602;2022-12-05T05:16:57;5.40;94.00
35593;DHT22;64447;52.140;5.602;2022-12-05T05:19:23;5.50;94.30
35593;DHT22;64447;52.140;5.602;2022-12-05T05:21:50;5.50;93.90
35593;DHT22;64447;52.140;5.602;2022-12-05T05:24:16;5.70;93.80
35593;DHT22;64447;52.140;5.602;2022-12-05T05:26:44;5.70;93.50
35593;DHT22;64447;52.140;5.602;2022-12-05T05:29:10;5.60;93.80
35593;DHT22;64447;52.140;5.602;2022-12-05T05:31:37;5.70;93.70
35593;DHT22;64447;52.140;5.602;2022-12-05T05:34:04;5.80;93.90
35593;DHT22;64447;52.140;5.602;2022-12-05T05:36:29;5.50;94.00
35593;DHT22;64447;52.140;5.602;2022-12-05T05:38:57;5.70;93.80
35593;DHT22;64447;52.140;5.602;2022-12-05T05:43:51;5.60;94.10
35593;DHT22;64447;52.140;5.602;2022-12-05T05:46:19;5.50;94.00
35593;DHT22;64447;52.140;5.602;2022-12-05T05:48:45;5.30;94.30
35593;DHT22;64447;52.140;5.602;2022-12-05T05:51:12;5.40;94.70
35593;DHT22;64447;52.140;5.602;2022-12-05T05:53:38;5.40;94.30
35593;DHT22;64447;52.140;5.602;2022-12-05T05:56:06;5.60;94.60
35593;DHT22;64447;52.140;5.602;2022-12-05T05:58:32;5.60;94.10
35593;DHT22;64447;52.140;5.602;2022-12-05T06:03:32;5.50;94.40
35593;DHT22;64447;52.140;5.602;2022-12-05T06:06:04;5.60;94.60
35593;DHT22;64447;52.140;5.602;2022-12-05T06:08:31;5.60;94.00
35593;DHT22;64447;52.140;5.602;2022-12-05T06:10:57;5.50;94.40
35593;DHT22;64447;52.140;5.602;2022-12-05T06:13:23;5.50;94.50
35593;DHT22;64447;52.140;5.602;2022-12-05T06:15:49;5.50;94.40
35593;DHT22;64447;52.140;5.602;2022-12-05T06:18:14;5.70;94.30
35593;DHT22;64447;52.140;5.602;2022-12-05T06:20:40;5.60;94.80
35593;DHT22;64447;52.140;5.602;2022-12-05T06:23:06;5.60;94.50
35593;DHT22;64447;52.140;5.602;2022-12-05T06:25:31;5.40;94.90
35593;DHT22;64447;52.140;5.602;2022-12-05T06:27:57;5.50;94.90
35593;DHT22;64447;52.140;5.602;2022-12-05T06:30:22;5.60;94.60
35593;DHT22;64447;52.140;5.602;2022-12-05T06:32:48;5.40;94.90
35593;DHT22;64447;52.140;5.602;2022-12-05T06:35:14;5.50;95.00
35593;DHT22;64447;52.140;5.602;2022-12-05T06:37:44;5.40;95.10
35593;DHT22;64447;52.140;5.602;2022-12-05T06:40:11;5.30;95.70
35593;DHT22;64447;52.140;5.602;2022-12-05T06:42:37;5.40;95.50
35593;DHT22;64447;52.140;5.602;2022-12-05T06:45:03;5.40;95.40
35593;DHT22;64447;52.140;5.602;2022-12-05T06:47:29;5.30;95.50
35593;DHT22;64447;52.140;5.602;2022-12-05T06:49:55;5.30;95.90
35593;DHT22;64447;52.140;5.602;2022-12-05T06:52:20;5.90;96.00
35593;DHT22;64447;52.140;5.602;2022-12-05T06:54:46;5.30;95.70
35593;DHT22;64447;52.140;5.602;2022-12-05T06:57:12;5.30;95.90
35593;DHT22;64447;52.140;5.602;2022-12-05T06:59:38;5.00;95.60
35593;DHT22;64447;52.140;5.602;2022-12-05T07:02:04;5.30;95.80
35593;DHT22;64447;52.140;5.602;2022-12-05T07:04:33;5.40;95.90
35593;DHT22;64447;52.140;5.602;2022-12-05T07:06:59;5.30;95.80
35593;DHT22;64447;52.140;5.602;2022-12-05T07:09:27;5.40;96.00
35593;DHT22;64447;52.140;5.602;2022-12-05T07:12:15;5.70;95.90
35593;DHT22;64447;52.140;5.602;2022-12-05T07:14:42;5.80;95.00
35593;DHT22;64447;52.140;5.602;2022-12-05T07:17:08;5.90;94.70
35593;DHT22;64447;52.140;5.602;2022-12-05T07:19:34;5.80;94.60
35593;DHT22;64447;52.140;5.602;2022-12-05T07:22:00;6.10;94.10
35593;DHT22;64447;52.140;5.602;2022-12-05T07:24:26;6.10;94.40
35593;DHT22;64447;52.140;5.602;2022-12-05T07:26:51;6.10;93.90
35593;DHT22;64447;52.140;5.602;2022-12-05T07:32:39;6.10;93.90
35593;DHT22;64447;52.140;5.602;2022-12-05T07:35:04;6.00;94.30
35593;DHT22;64447;52.140;5.602;2022-12-05T07:37:30;5.90;94.30
35593;DHT22;64447;52.140;5.602;2022-12-05T07:39:55;5.90;94.60
35593;DHT22;64447;52.140;5.602;2022-12-05T07:42:21;5.90;94.70
35593;DHT22;64447;52.140;5.602;2022-12-05T07:44:47;5.90;94.40
35593;DHT22;64447;52.140;5.602;2022-12-05T07:47:12;6.00;94.50
35593;DHT22;64447;52.140;5.602;2022-12-05T07:49:43;6.10;94.40
35593;DHT22;64447;52.140;5.602;2022-12-05T07:52:12;6.20;94.00
35593;DHT22;64447;52.140;5.602;2022-12-05T07:54:38;6.20;93.70
35593;DHT22;64447;52.140;5.602;2022-12-05T07:57:03;6.10;94.20
35593;DHT22;64447;52.140;5.602;2022-12-05T08:02:51;6.10;94.20
35593;DHT22;64447;52.140;5.602;2022-12-05T08:05:16;6.00;94.40
35593;DHT22;64447;52.140;5.602;2022-12-05T08:07:42;6.10;94.40
35593;DHT22;64447;52.140;5.602;2022-12-05T08:10:07;6.00;94.40
35593;DHT22;64447;52.140;5.602;2022-12-05T08:12:33;5.90;94.30
35593;DHT22;64447;52.140;5.602;2022-12-05T08:14:59;5.90;94.60
35593;DHT22;64447;52.140;5.602;2022-12-05T08:17:24;5.80;94.90
35593;DHT22;64447;52.140;5.602;2022-12-05T08:19:51;6.50;94.90
35593;DHT22;64447;52.140;5.602;2022-12-05T08:22:16;5.90;95.00
35593;DHT22;64447;52.140;5.602;2022-12-05T08:24:42;6.00;94.60
35593;DHT22;64447;52.140;5.602;2022-12-05T08:27:08;6.20;94.40
35593;DHT22;64447;52.140;5.602;2022-12-05T08:32:55;6.30;93.90
35593;DHT22;64447;52.140;5.602;2022-12-05T08:35:21;6.40;93.50
35593;DHT22;64447;52.140;5.602;2022-12-05T08:37:46;6.20;94.30
35593;DHT22;64447;52.140;5.602;2022-12-05T08:40:12;6.80;94.10
35593;DHT22;64447;52.140;5.602;2022-12-05T08:42:37;6.20;93.90
35593;DHT22;64447;52.140;5.602;2022-12-05T08:45:03;6.30;93.80
35593;DHT22;64447;52.140;5.602;2022-12-05T08:47:29;6.20;94.10
35593;DHT22;64447;52.140;5.602;2022-12-05T08:49:55;6.40;93.80
35593;DHT22;64447;52.140;5.602;2022-12-05T08:52:23;6.50;93.60
35593;DHT22;64447;52.140;5.602;2022-12-05T08:54:48;6.30;93.50
35593;DHT22;64447;52.140;5.602;2022-12-05T08:57:14;6.40;93.70
35593;DHT22;64447;52.140;5.602;2022-12-05T09:03:01;6.40;93.80
35593;DHT22;64447;52.140;5.602;2022-12-05T09:05:27;6.60;93.40
35593;DHT22;64447;52.140;5.602;2022-12-05T09:07:52;6.70;93.30
35593;DHT22;64447;52.140;5.602;2022-12-05T09:10:18;6.50;93.60
35593;DHT22;64447;52.140;5.602;2022-12-05T09:12:44;6.50;93.40
35593;DHT22;64447;52.140;5.602;2022-12-05T09:15:11;6.60;93.00
35593;DHT22;64447;52.140;5.602;2022-12-05T09:17:37;6.80;92.70
35593;DHT22;64447;52.140;5.602;2022-12-05T09:20:04;6.90;92.60
35593;DHT22;64447;52.140;5.602;2022-12-05T09:22:30;7.00;92.20
35593;DHT22;64447;52.140;5.602;2022-12-05T09:24:55;6.70;92.40
35593;DHT22;64447;52.140;5.602;2022-12-05T09:27:21;6.80;92.60
35593;DHT22;64447;52.140;5.602;2022-12-05T09:33:08;7.00;92.30
35593;DHT22;64447;52.140;5.602;2022-12-05T09:35:38;7.00;92.50
35593;DHT22;64447;52.140;5.602;2022-12-05T09:38:04;6.90;92.20
35593;DHT22;64447;52.140;5.602;2022-12-05T09:40:29;6.60;92.80
35593;DHT22;64447;52.140;5.602;2022-12-05T09:43:04;6.40;93.30
35593;DHT22;64447;52.140;5.602;2022-12-05T09:45:37;6.30;93.70
35593;DHT22;64447;52.140;5.602;2022-12-05T09:48:05;6.20;94.20
35593;DHT22;64447;52.140;5.602;2022-12-05T09:50:49;6.10;94.40
35593;DHT22;64447;52.140;5.602;2022-12-05T09:53:25;6.00;94.90
35593;DHT22;64447;52.140;5.602;2022-12-05T09:56:11;6.00;94.70
35593;DHT22;64447;52.140;5.602;2022-12-05T10:07:21;6.20;95.10
35593;DHT22;64447;52.140;5.602;2022-12-05T10:15:50;6.30;95.00
35593;DHT22;64447;52.140;5.602;2022-12-05T10:23:50;6.80;94.10
35593;DHT22;64447;52.140;5.602;2022-12-05T10:26:17;6.80;93.80
35593;DHT22;64447;52.140;5.602;2022-12-05T10:32:23;6.90;93.30
35593;DHT22;64447;52.140;5.602;2022-12-05T10:34:53;7.00;93.20
35593;DHT22;64447;52.140;5.602;2022-12-05T10:37:24;6.90;93.70
35593;DHT22;64447;52.140;5.602;2022-12-05T10:39:50;7.00;93.50
35593;DHT22;64447;52.140;5.602;2022-12-05T10:42:22;7.10;93.60
35593;DHT22;64447;52.140;5.602;2022-12-05T10:48:13;7.20;93.10
35593;DHT22;64447;52.140;5.602;2022-12-05T10:50:39;8.00;92.90
35593;DHT22;64447;52.140;5.602;2022-12-05T10:53:07;7.50;92.70
35593;DHT22;64447;52.140;5.602;2022-12-05T10:55:41;7.40;92.80
35593;DHT22;64447;52.140;5.602;2022-12-05T11:00:42;7.30;92.80
35593;DHT22;64447;52.140;5.602;2022-12-05T11:03:25;7.20;93.20
35593;DHT22;64447;52.140;5.602;2022-12-05T11:05:53;7.20;93.00
35593;DHT22;64447;52.140;5.602;2022-12-05T11:08:31;7.20;93.30
35593;DHT22;64447;52.140;5.602;2022-12-05T11:16:31;6.70;94.40
35593;DHT22;64447;52.140;5.602;2022-12-05T11:19:18;6.60;94.90
35593;DHT22;64447;52.140;5.602;2022-12-05T11:21:49;6.60;95.10
35593;DHT22;64447;52.140;5.602;2022-12-05T11:24:24;6.80;94.90
35593;DHT22;64447;52.140;5.602;2022-12-05T11:26:50;7.00;94.70
35593;DHT22;64447;52.140;5.602;2022-12-05T11:29:35;6.90;94.30
35593;DHT22;64447;52.140;5.602;2022-12-05T11:32:17;6.90;94.40
35593;DHT22;64447;52.140;5.602;2022-12-05T11:35:03;6.70;94.70
35593;DHT22;64447;52.140;5.602;2022-12-05T11:40:23;6.70;94.70
35593;DHT22;64447;52.140;5.602;2022-12-05T11:48:12;6.90;94.50
35593;DHT22;64447;52.140;5.602;2022-12-05T12:02:41;6.50;95.60
35593;DHT22;64447;52.140;5.602;2022-12-05T12:05:17;6.40;95.60
35593;DHT22;64447;52.140;5.602;2022-12-05T12:13:50;6.50;95.50
35593;DHT22;64447;52.140;5.602;2022-12-05T12:25:50;6.80;95.30
35593;DHT22;64447;52.140;5.602;2022-12-05T12:31:48;6.70;95.00
35593;DHT22;64447;52.140;5.602;2022-12-05T12:42:28;6.70;95.10
35593;DHT22;64447;52.140;5.602;2022-12-05T12:48:47;6.70;94.80
35593;DHT22;64447;52.140;5.602;2022-12-05T12:51:17;6.70;94.70
35593;DHT22;64447;52.140;5.602;2022-12-05T12:56:55;6.50;95.00
35593;DHT22;64447;52.140;5.602;2022-12-05T13:03:09;6.60;94.60
35593;DHT22;64447;52.140;5.602;2022-12-05T13:05:26;6.50;94.30
35593;DHT22;64447;52.140;5.602;2022-12-05T13:08:19;6.60;94.70
35593;DHT22;64447;52.140;5.602;2022-12-05T13:10:47;6.70;94.60
35593;DHT22;64447;52.140;5.602;2022-12-05T13:13:19;6.70;94.60
35593;DHT22;64447;52.140;5.602;2022-12-05T13:15:57;6.80;94.30
35593;DHT22;64447;52.140;5.602;2022-12-05T13:18:25;6.80;94.30
35593;DHT22;64447;52.140;5.602;2022-12-05T13:20:56;6.60;94.90
35593;DHT22;64447;52.140;5.602;2022-12-05T13:23:30;6.60;94.60
35593;DHT22;64447;52.140;5.602;2022-12-05T13:25:58;6.50;94.60
35593;DHT22;64447;52.140;5.602;2022-12-05T13:31:45;6.40;94.90
35593;DHT22;64447;52.140;5.602;2022-12-05T13:37:14;6.30;95.50
35593;DHT22;64447;52.140;5.602;2022-12-05T13:40:00;6.40;95.40
35593;DHT22;64447;52.140;5.602;2022-12-05T13:42:44;6.40;95.40
35593;DHT22;64447;52.140;5.602;2022-12-05T13:48:36;6.40;95.00
35593;DHT22;64447;52.140;5.602;2022-12-05T13:51:06;6.50;95.00
35593;DHT22;64447;52.140;5.602;2022-12-05T13:58:54;6.80;94.30
35593;DHT22;64447;52.140;5.602;2022-12-05T14:03:55;7.00;93.80
35593;DHT22;64447;52.140;5.602;2022-12-05T14:17:32;6.80;93.90
35593;DHT22;64447;52.140;5.602;2022-12-05T14:23:02;6.60;94.50
35593;DHT22;64447;52.140;5.602;2022-12-05T14:28:34;6.30;95.30
35593;DHT22;64447;52.140;5.602;2022-12-05T14:37:02;6.30;95.40
35593;DHT22;64447;52.140;5.602;2022-12-05T14:42:51;6.40;95.60
35593;DHT22;64447;52.140;5.602;2022-12-05T14:56:04;6.50;94.90
35593;DHT22;64447;52.140;5.602;2022-12-05T15:04:54;6.50;94.80
35593;DHT22;64447;52.140;5.602;2022-12-05T15:07:35;6.50;95.00
35593;DHT22;64447;52.140;5.602;2022-12-05T15:10:23;6.70;94.70
35593;DHT22;64447;52.140;5.602;2022-12-05T15:12:59;6.90;94.40
35593;DHT22;64447;52.140;5.602;2022-12-05T15:18:30;6.70;94.80
35593;DHT22;64447;52.140;5.602;2022-12-05T15:26:02;6.50;94.80
35593;DHT22;64447;52.140;5.602;2022-12-05T15:28:32;6.40;95.40
35593;DHT22;64447;52.140;5.602;2022-12-05T15:30:58;6.40;95.20
35593;DHT22;64447;52.140;5.602;2022-12-05T15:33:24;6.40;95.30
35593;DHT22;64447;52.140;5.602;2022-12-05T15:35:52;6.40;95.40
35593;DHT22;64447;52.140;5.602;2022-12-05T15:38:25;6.50;95.00
35593;DHT22;64447;52.140;5.602;2022-12-05T15:40:52;6.70;94.90
35593;DHT22;64447;52.140;5.602;2022-12-05T15:43:29;6.50;94.50
35593;DHT22;64447;52.140;5.602;2022-12-05T15:46:18;6.60;95.00
35593;DHT22;64447;52.140;5.602;2022-12-05T15:48:45;6.50;95.10
35593;DHT22;64447;52.140;5.602;2022-12-05T15:51:11;6.40;95.00
35593;DHT22;64447;52.140;5.602;2022-12-05T15:56:25;6.50;95.00
35593;DHT22;64447;52.140;5.602;2022-12-05T15:59:04;6.50;95.10
35593;DHT22;64447;52.140;5.602;2022-12-05T16:01:40;6.60;94.70
35593;DHT22;64447;52.140;5.602;2022-12-05T16:06:41;6.50;94.90
35593;DHT22;64447;52.140;5.602;2022-12-05T16:09:12;6.60;94.80
35593;DHT22;64447;52.140;5.602;2022-12-05T16:11:39;6.40;94.80
35593;DHT22;64447;52.140;5.602;2022-12-05T16:14:14;6.30;95.20
35593;DHT22;64447;52.140;5.602;2022-12-05T16:16:40;6.30;95.30
35593;DHT22;64447;52.140;5.602;2022-12-05T16:19:20;6.40;95.10
35593;DHT22;64447;52.140;5.602;2022-12-05T16:21:59;6.60;94.80
35593;DHT22;64447;52.140;5.602;2022-12-05T16:24:37;7.30;95.00
35593;DHT22;64447;52.140;5.602;2022-12-05T16:27:15;6.50;95.10
35593;DHT22;64447;52.140;5.602;2022-12-05T16:33:13;6.20;95.40
35593;DHT22;64447;52.140;5.602;2022-12-05T16:35:43;6.20;95.40
35593;DHT22;64447;52.140;5.602;2022-12-05T16:49:32;6.10;95.60
35593;DHT22;64447;52.140;5.602;2022-12-05T16:52:00;6.20;95.50
35593;DHT22;64447;52.140;5.602;2022-12-05T16:54:26;6.30;95.40
35593;DHT22;64447;52.140;5.602;2022-12-05T16:56:51;6.30;95.10
35593;DHT22;64447;52.140;5.602;2022-12-05T16:59:23;7.10;95.20
35593;DHT22;64447;52.140;5.602;2022-12-05T17:05:13;6.20;95.70
35593;DHT22;64447;52.140;5.602;2022-12-05T17:07:39;6.10;95.40
35593;DHT22;64447;52.140;5.602;2022-12-05T17:10:05;6.10;95.80
35593;DHT22;64447;52.140;5.602;2022-12-05T17:12:31;6.10;95.70
35593;DHT22;64447;52.140;5.602;2022-12-05T17:14:57;6.50;95.90
35593;DHT22;64447;52.140;5.602;2022-12-05T17:20:52;6.00;95.80
35593;DHT22;64447;52.140;5.602;2022-12-05T17:23:18;6.20;95.90
35593;DHT22;64447;52.140;5.602;2022-12-05T17:25:54;6.30;95.50
35593;DHT22;64447;52.140;5.602;2022-12-05T17:28:20;6.40;95.40
35593;DHT22;64447;52.140;5.602;2022-12-05T17:30:46;6.30;95.20
35593;DHT22;64447;52.140;5.602;2022-12-05T17:33:14;6.40;95.10
35593;DHT22;64447;52.140;5.602;2022-12-05T17:35:40;7.00;94.90
35593;DHT22;64447;52.140;5.602;2022-12-05T17:38:06;6.50;94.60
35593;DHT22;64447;52.140;5.602;2022-12-05T17:40:32;6.40;94.80
35593;DHT22;64447;52.140;5.602;2022-12-05T17:42:58;6.60;94.90
35593;DHT22;64447;52.140;5.602;2022-12-05T17:45:24;6.60;94.20
35593;DHT22;64447;52.140;5.602;2022-12-05T17:51:12;6.60;94.10
35593;DHT22;64447;52.140;5.602;2022-12-05T17:53:39;6.50;94.30
35593;DHT22;64447;52.140;5.602;2022-12-05T17:56:05;6.60;94.50
35593;DHT22;64447;52.140;5.602;2022-12-05T17:58:31;6.60;94.50
35593;DHT22;64447;52.140;5.602;2022-12-05T18:00:57;6.80;94.10
35593;DHT22;64447;52.140;5.602;2022-12-05T18:03:23;6.80;93.90
35593;DHT22;64447;52.140;5.602;2022-12-05T18:05:48;6.90;93.70
35593;DHT22;64447;52.140;5.602;2022-12-05T18:08:15;7.00;93.40
35593;DHT22;64447;52.140;5.602;2022-12-05T18:10:43;7.00;93.50
35593;DHT22;64447;52.140;5.602;2022-12-05T18:13:09;6.90;93.60
35593;DHT22;64447;52.140;5.602;2022-12-05T18:15:36;6.70;93.90
35593;DHT22;64447;52.140;5.602;2022-12-05T18:21:23;6.60;94.40
35593;DHT22;64447;52.140;5.602;2022-12-05T18:23:50;6.60;94.40
35593;DHT22;64447;52.140;5.602;2022-12-05T18:26:16;6.60;94.30
35593;DHT22;64447;52.140;5.602;2022-12-05T18:28:41;6.60;94.00
35593;DHT22;64447;52.140;5.602;2022-12-05T18:31:12;6.60;94.00
35593;DHT22;64447;52.140;5.602;2022-12-05T18:33:40;6.70;94.30
35593;DHT22;64447;52.140;5.602;2022-12-05T18:36:08;7.00;94.10
35593;DHT22;64447;52.140;5.602;2022-12-05T18:38:35;6.70;93.90
35593;DHT22;64447;52.140;5.602;2022-12-05T18:41:03;6.90;93.80
35593;DHT22;64447;52.140;5.602;2022-12-05T18:43:30;6.80;94.00
35593;DHT22;64447;52.140;5.602;2022-12-05T18:45:57;6.50;94.30
35593;DHT22;64447;52.140;5.602;2022-12-05T18:48:23;6.40;94.80
35593;DHT22;64447;52.140;5.602;2022-12-05T18:50:49;6.40;95.00
35593;DHT22;64447;52.140;5.602;2022-12-05T18:53:15;6.40;94.80
35593;DHT22;64447;52.140;5.602;2022-12-05T18:55:40;6.40;94.80
35593;DHT22;64447;52.140;5.602;2022-12-05T18:58:06;6.50;94.80
35593;DHT22;64447;52.140;5.602;2022-12-05T19:00:31;6.60;94.40
35593;DHT22;64447;52.140;5.602;2022-12-05T19:06:21;6.60;94.50
35593;DHT22;64447;52.140;5.602;2022-12-05T19:08:47;6.60;94.30
35593;DHT22;64447;52.140;5.602;2022-12-05T19:11:14;6.60;94.30
35593;DHT22;64447;52.140;5.602;2022-12-05T19:13:40;6.40;94.50
35593;DHT22;64447;52.140;5.602;2022-12-05T19:16:08;6.20;94.90
35593;DHT22;64447;52.140;5.602;2022-12-05T19:18:34;6.30;95.20
35593;DHT22;64447;52.140;5.602;2022-12-05T19:21:00;6.40;95.20
35593;DHT22;64447;52.140;5.602;2022-12-05T19:23:26;6.30;95.10
35593;DHT22;64447;52.140;5.602;2022-12-05T19:26:03;7.10;95.40
35593;DHT22;64447;52.140;5.602;2022-12-05T19:28:30;6.30;95.40
35593;DHT22;64447;52.140;5.602;2022-12-05T19:31:01;6.30;95.30
35593;DHT22;64447;52.140;5.602;2022-12-05T19:36:49;6.60;94.90
35593;DHT22;64447;52.140;5.602;2022-12-05T19:39:20;7.30;95.30
35593;DHT22;64447;52.140;5.602;2022-12-05T19:41:47;6.50;94.80
35593;DHT22;64447;52.140;5.602;2022-12-05T19:44:12;6.80;94.80
35593;DHT22;64447;52.140;5.602;2022-12-05T19:46:39;6.80;94.20
35593;DHT22;64447;52.140;5.602;2022-12-05T19:49:07;6.70;94.70
35593;DHT22;64447;52.140;5.602;2022-12-05T19:51:33;6.60;94.70
35593;DHT22;64447;52.140;5.602;2022-12-05T19:54:01;6.50;94.80
35593;DHT22;64447;52.140;5.602;2022-12-05T19:56:28;6.80;94.80
35593;DHT22;64447;52.140;5.602;2022-12-05T19:58:55;6.50;94.80
35593;DHT22;64447;52.140;5.602;2022-12-05T20:03:57;6.70;94.40
35593;DHT22;64447;52.140;5.602;2022-12-05T20:06:23;6.40;94.70
35593;DHT22;64447;52.140;5.602;2022-12-05T20:08:50;6.50;94.80
35593;DHT22;64447;52.140;5.602;2022-12-05T20:11:22;7.00;95.20
35593;DHT22;64447;52.140;5.602;2022-12-05T20:13:53;6.40;94.80
35593;DHT22;64447;52.140;5.602;2022-12-05T20:22:45;6.60;95.10
35593;DHT22;64447;52.140;5.602;2022-12-05T20:25:10;6.50;95.30
35593;DHT22;64447;52.140;5.602;2022-12-05T20:27:36;6.50;95.20